sensor_id;sensor_type;location;lat;lon;timestamp;P1;durP1;ratioP1;P2;durP2;ratioP2
79178;SDS011;68608;49.904;16.436;2023-09-30T00:00:28;9.20;;;8.50;;
79178;SDS011;68608;49.904;16.436;2023-09-30T00:02:54;9.93;;;9.10;;
79178;SDS011;68608;49.904;16.436;2023-09-30T00:05:20;10.45;;;8.15;;
79178;SDS011;68608;49.904;16.436;2023-09-30T00:07:46;10.65;;;9.75;;
79178;SDS011;68608;49.904;16.436;2023-09-30T00:10:12;11.02;;;9.52;;
79178;SDS011;68608;49.904;16.436;2023-09-30T00:12:39;10.98;;;9.98;;
79178;SDS011;68608;49.904;16.436;2023-09-30T00:15:05;9.98;;;9.18;;
79178;SDS011;68608;49.904;16.436;2023-09-30T00:17:32;10.70;;;8.88;;
79178;SDS011;68608;49.904;16.436;2023-09-30T00:19:58;9.95;;;9.15;;
79178;SDS011;68608;49.904;16.436;2023-09-30T00:22:24;10.57;;;9.63;;
79178;SDS011;68608;49.904;16.436;2023-09-30T00:24:50;10.70;;;9.80;;
79178;SDS011;68608;49.904;16.436;2023-09-30T00:27:16;9.77;;;8.95;;
79178;SDS011;68608;49.904;16.436;2023-09-30T00:29:43;9.73;;;8.93;;
79178;SDS011;68608;49.904;16.436;2023-09-30T00:32:09;10.75;;;9.85;;
79178;SDS011;68608;49.904;16.436;2023-09-30T00:34:35;9.98;;;8.95;;
79178;SDS011;68608;49.904;16.436;2023-09-30T00:37:01;9.70;;;8.90;;
79178;SDS011;68608;49.904;16.436;2023-09-30T00:39:28;10.15;;;9.35;;
79178;SDS011;68608;49.904;16.436;2023-09-30T00:41:57;10.88;;;9.93;;
79178;SDS011;68608;49.904;16.436;2023-09-30T00:44:28;11.38;;;10.35;;
79178;SDS011;68608;49.904;16.436;2023-09-30T00:46:54;11.38;;;10.38;;
79178;SDS011;68608;49.904;16.436;2023-09-30T00:49:21;11.60;;;10.60;;
79178;SDS011;68608;49.904;16.436;2023-09-30T00:51:48;11.23;;;10.32;;
79178;SDS011;68608;49.904;16.436;2023-09-30T00:54:14;11.30;;;10.27;;
79178;SDS011;68608;49.904;16.436;2023-09-30T00:56:44;10.15;;;9.10;;
79178;SDS011;68608;49.904;16.436;2023-09-30T00:59:11;10.30;;;9.50;;
79178;SDS011;68608;49.904;16.436;2023-09-30T01:01:38;11.00;;;10.07;;
79178;SDS011;68608;49.904;16.436;2023-09-30T01:04:04;11.13;;;10.23;;
79178;SDS011;68608;49.904;16.436;2023-09-30T01:06:31;10.20;;;9.23;;
79178;SDS011;68608;49.904;16.436;2023-09-30T01:08:57;10.38;;;9.48;;
79178;SDS011;68608;49.904;16.436;2023-09-30T01:11:24;10.25;;;9.32;;
79178;SDS011;68608;49.904;16.436;2023-09-30T01:13:50;10.18;;;9.18;;
79178;SDS011;68608;49.904;16.436;2023-09-30T01:16:16;10.25;;;9.25;;
79178;SDS011;68608;49.904;16.436;2023-09-30T01:18:42;10.32;;;9.45;;
79178;SDS011;68608;49.904;16.436;2023-09-30T01:21:08;10.18;;;9.30;;
79178;SDS011;68608;49.904;16.436;2023-09-30T01:23:35;9.80;;;8.85;;
79178;SDS011;68608;49.904;16.436;2023-09-30T01:26:03;10.68;;;9.75;;
79178;SDS011;68608;49.904;16.436;2023-09-30T01:28:31;9.48;;;8.65;;
79178;SDS011;68608;49.904;16.436;2023-09-30T01:30:57;9.75;;;8.95;;
79178;SDS011;68608;49.904;16.436;2023-09-30T01:33:23;10.82;;;9.80;;
79178;SDS011;68608;49.904;16.436;2023-09-30T01:35:49;9.48;;;8.57;;
79178;SDS011;68608;49.904;16.436;2023-09-30T01:38:15;10.65;;;9.75;;
79178;SDS011;68608;49.904;16.436;2023-09-30T01:40:41;9.82;;;9.02;;
79178;SDS011;68608;49.904;16.436;2023-09-30T01:43:08;11.27;;;9.00;;
79178;SDS011;68608;49.904;16.436;2023-09-30T01:45:34;10.18;;;9.35;;
79178;SDS011;68608;49.904;16.436;2023-09-30T01:48:01;9.77;;;8.95;;
79178;SDS011;68608;49.904;16.436;2023-09-30T01:50:27;10.27;;;9.30;;
79178;SDS011;68608;49.904;16.436;2023-09-30T01:52:54;9.73;;;8.93;;
79178;SDS011;68608;49.904;16.436;2023-09-30T01:55:20;12.23;;;8.77;;
79178;SDS011;68608;49.904;16.436;2023-09-30T01:57:46;9.27;;;8.48;;
79178;SDS011;68608;49.904;16.436;2023-09-30T02:00:12;9.68;;;8.88;;
79178;SDS011;68608;49.904;16.436;2023-09-30T02:02:38;8.85;;;7.95;;
79178;SDS011;68608;49.904;16.436;2023-09-30T02:05:04;9.40;;;8.63;;
79178;SDS011;68608;49.904;16.436;2023-09-30T02:07:33;9.32;;;8.43;;
79178;SDS011;68608;49.904;16.436;2023-09-30T02:09:59;9.02;;;8.32;;
79178;SDS011;68608;49.904;16.436;2023-09-30T02:12:26;9.02;;;8.27;;
79178;SDS011;68608;49.904;16.436;2023-09-30T02:14:55;8.85;;;8.13;;
79178;SDS011;68608;49.904;16.436;2023-09-30T02:17:21;10.30;;;9.30;;
79178;SDS011;68608;49.904;16.436;2023-09-30T02:19:48;9.82;;;9.00;;
79178;SDS011;68608;49.904;16.436;2023-09-30T02:22:15;9.38;;;8.48;;
79178;SDS011;68608;49.904;16.436;2023-09-30T02:24:41;9.02;;;8.20;;
79178;SDS011;68608;49.904;16.436;2023-09-30T02:27:07;8.43;;;7.63;;
79178;SDS011;68608;49.904;16.436;2023-09-30T02:29:33;8.35;;;7.68;;
79178;SDS011;68608;49.904;16.436;2023-09-30T02:31:59;8.65;;;7.90;;
79178;SDS011;68608;49.904;16.436;2023-09-30T02:34:25;8.48;;;7.68;;
79178;SDS011;68608;49.904;16.436;2023-09-30T02:36:52;8.77;;;8.07;;
79178;SDS011;68608;49.904;16.436;2023-09-30T02:39:20;8.50;;;7.80;;
79178;SDS011;68608;49.904;16.436;2023-09-30T02:41:46;9.10;;;8.40;;
79178;SDS011;68608;49.904;16.436;2023-09-30T02:44:15;9.05;;;8.15;;
79178;SDS011;68608;49.904;16.436;2023-09-30T02:46:41;8.88;;;8.15;;
79178;SDS011;68608;49.904;16.436;2023-09-30T02:49:07;8.52;;;7.82;;
79178;SDS011;68608;49.904;16.436;2023-09-30T02:51:33;8.30;;;7.60;;
79178;SDS011;68608;49.904;16.436;2023-09-30T02:53:59;8.65;;;7.85;;
79178;SDS011;68608;49.904;16.436;2023-09-30T02:56:25;9.18;;;8.48;;
79178;SDS011;68608;49.904;16.436;2023-09-30T02:58:53;7.68;;;7.07;;
79178;SDS011;68608;49.904;16.436;2023-09-30T03:01:20;8.57;;;7.70;;
79178;SDS011;68608;49.904;16.436;2023-09-30T03:03:46;7.55;;;6.93;;
79178;SDS011;68608;49.904;16.436;2023-09-30T03:06:12;8.90;;;7.22;;
79178;SDS011;68608;49.904;16.436;2023-09-30T03:08:39;7.68;;;6.90;;
79178;SDS011;68608;49.904;16.436;2023-09-30T03:11:06;7.40;;;6.70;;
79178;SDS011;68608;49.904;16.436;2023-09-30T03:13:32;7.85;;;7.15;;
79178;SDS011;68608;49.904;16.436;2023-09-30T03:15:59;7.68;;;6.97;;
79178;SDS011;68608;49.904;16.436;2023-09-30T03:18:26;8.40;;;7.70;;
79178;SDS011;68608;49.904;16.436;2023-09-30T03:20:57;8.00;;;7.30;;
79178;SDS011;68608;49.904;16.436;2023-09-30T03:23:25;8.80;;;8.10;;
79178;SDS011;68608;49.904;16.436;2023-09-30T03:25:58;8.38;;;7.68;;
79178;SDS011;68608;49.904;16.436;2023-09-30T03:28:24;9.98;;;8.15;;
79178;SDS011;68608;49.904;16.436;2023-09-30T03:30:50;9.93;;;9.02;;
79178;SDS011;68608;49.904;16.436;2023-09-30T03:33:16;9.15;;;8.35;;
79178;SDS011;68608;49.904;16.436;2023-09-30T03:35:42;8.50;;;7.70;;
79178;SDS011;68608;49.904;16.436;2023-09-30T03:38:09;9.95;;;9.05;;
79178;SDS011;68608;49.904;16.436;2023-09-30T03:40:37;8.98;;;8.25;;
79178;SDS011;68608;49.904;16.436;2023-09-30T03:43:04;10.20;;;9.27;;
79178;SDS011;68608;49.904;16.436;2023-09-30T03:45:33;9.85;;;9.05;;
79178;SDS011;68608;49.904;16.436;2023-09-30T03:48:00;11.23;;;10.18;;
79178;SDS011;68608;49.904;16.436;2023-09-30T03:50:27;12.65;;;10.82;;
79178;SDS011;68608;49.904;16.436;2023-09-30T03:53:00;11.50;;;9.95;;
79178;SDS011;68608;49.904;16.436;2023-09-30T03:55:27;11.05;;;10.05;;
79178;SDS011;68608;49.904;16.436;2023-09-30T03:57:55;10.18;;;9.15;;
79178;SDS011;68608;49.904;16.436;2023-09-30T04:00:21;10.07;;;9.18;;
79178;SDS011;68608;49.904;16.436;2023-09-30T04:02:50;9.25;;;8.32;;
79178;SDS011;68608;49.904;16.436;2023-09-30T04:05:19;9.85;;;9.02;;
79178;SDS011;68608;49.904;16.436;2023-09-30T04:07:49;9.05;;;8.25;;
79178;SDS011;68608;49.904;16.436;2023-09-30T04:10:16;10.32;;;9.32;;
79178;SDS011;68608;49.904;16.436;2023-09-30T04:12:42;8.13;;;7.38;;
79178;SDS011;68608;49.904;16.436;2023-09-30T04:15:09;8.18;;;7.57;;
79178;SDS011;68608;49.904;16.436;2023-09-30T04:17:38;7.20;;;6.63;;
79178;SDS011;68608;49.904;16.436;2023-09-30T04:20:07;8.38;;;7.68;;
79178;SDS011;68608;49.904;16.436;2023-09-30T04:22:41;7.60;;;7.00;;
79178;SDS011;68608;49.904;16.436;2023-09-30T04:25:14;8.52;;;7.82;;
79178;SDS011;68608;49.904;16.436;2023-09-30T04:27:42;8.70;;;8.00;;
79178;SDS011;68608;49.904;16.436;2023-09-30T04:30:08;8.02;;;7.43;;
79178;SDS011;68608;49.904;16.436;2023-09-30T04:32:36;7.93;;;7.22;;
79178;SDS011;68608;49.904;16.436;2023-09-30T04:35:03;8.68;;;7.80;;
79178;SDS011;68608;49.904;16.436;2023-09-30T04:37:30;8.32;;;7.70;;
79178;SDS011;68608;49.904;16.436;2023-09-30T04:39:56;7.22;;;6.63;;
79178;SDS011;68608;49.904;16.436;2023-09-30T04:42:23;8.88;;;8.18;;
79178;SDS011;68608;49.904;16.436;2023-09-30T04:44:50;10.05;;;8.27;;
79178;SDS011;68608;49.904;16.436;2023-09-30T04:47:17;10.05;;;9.05;;
79178;SDS011;68608;49.904;16.436;2023-09-30T04:49:46;9.63;;;8.73;;
79178;SDS011;68608;49.904;16.436;2023-09-30T04:52:12;10.32;;;9.40;;
79178;SDS011;68608;49.904;16.436;2023-09-30T04:54:38;10.57;;;9.57;;
79178;SDS011;68608;49.904;16.436;2023-09-30T04:57:04;11.45;;;10.13;;
79178;SDS011;68608;49.904;16.436;2023-09-30T04:59:32;11.65;;;10.45;;
79178;SDS011;68608;49.904;16.436;2023-09-30T05:01:58;11.02;;;9.98;;
79178;SDS011;68608;49.904;16.436;2023-09-30T05:04:25;11.55;;;10.50;;
79178;SDS011;68608;49.904;16.436;2023-09-30T05:06:51;16.05;;;12.95;;
79178;SDS011;68608;49.904;16.436;2023-09-30T05:09:17;13.27;;;11.75;;
79178;SDS011;68608;49.904;16.436;2023-09-30T05:11:43;14.20;;;12.70;;
79178;SDS011;68608;49.904;16.436;2023-09-30T05:14:09;12.13;;;10.68;;
79178;SDS011;68608;49.904;16.436;2023-09-30T05:16:35;16.42;;;12.90;;
79178;SDS011;68608;49.904;16.436;2023-09-30T05:19:02;15.23;;;13.60;;
79178;SDS011;68608;49.904;16.436;2023-09-30T05:21:29;15.13;;;13.63;;
79178;SDS011;68608;49.904;16.436;2023-09-30T05:23:55;14.63;;;13.10;;
79178;SDS011;68608;49.904;16.436;2023-09-30T05:26:21;15.15;;;13.60;;
79178;SDS011;68608;49.904;16.436;2023-09-30T05:28:48;14.85;;;12.90;;
79178;SDS011;68608;49.904;16.436;2023-09-30T05:31:14;15.90;;;14.27;;
79178;SDS011;68608;49.904;16.436;2023-09-30T05:33:40;16.77;;;14.23;;
79178;SDS011;68608;49.904;16.436;2023-09-30T05:36:06;16.00;;;14.30;;
79178;SDS011;68608;49.904;16.436;2023-09-30T05:38:32;17.75;;;14.70;;
79178;SDS011;68608;49.904;16.436;2023-09-30T05:40:59;16.17;;;14.45;;
79178;SDS011;68608;49.904;16.436;2023-09-30T05:43:26;16.48;;;13.90;;
79178;SDS011;68608;49.904;16.436;2023-09-30T05:45:52;15.45;;;13.88;;
79178;SDS011;68608;49.904;16.436;2023-09-30T05:48:20;15.73;;;14.02;;
79178;SDS011;68608;49.904;16.436;2023-09-30T05:50:46;17.63;;;15.70;;
79178;SDS011;68608;49.904;16.436;2023-09-30T05:53:12;15.82;;;13.88;;
79178;SDS011;68608;49.904;16.436;2023-09-30T05:55:39;16.55;;;14.90;;
79178;SDS011;68608;49.904;16.436;2023-09-30T05:58:14;18.63;;;15.18;;
79178;SDS011;68608;49.904;16.436;2023-09-30T06:00:43;19.23;;;16.00;;
79178;SDS011;68608;49.904;16.436;2023-09-30T06:03:09;18.27;;;14.73;;
79178;SDS011;68608;49.904;16.436;2023-09-30T06:05:42;17.70;;;15.02;;
79178;SDS011;68608;49.904;16.436;2023-09-30T06:08:09;19.52;;;16.05;;
79178;SDS011;68608;49.904;16.436;2023-09-30T06:10:41;21.63;;;16.48;;
79178;SDS011;68608;49.904;16.436;2023-09-30T06:13:11;18.08;;;15.40;;
79178;SDS011;68608;49.904;16.436;2023-09-30T06:15:40;18.20;;;15.35;;
79178;SDS011;68608;49.904;16.436;2023-09-30T06:18:08;17.13;;;14.88;;
79178;SDS011;68608;49.904;16.436;2023-09-30T06:20:38;17.88;;;15.13;;
79178;SDS011;68608;49.904;16.436;2023-09-30T06:23:04;17.58;;;15.55;;
79178;SDS011;68608;49.904;16.436;2023-09-30T06:25:30;17.92;;;15.63;;
79178;SDS011;68608;49.904;16.436;2023-09-30T06:27:58;19.33;;;15.70;;
79178;SDS011;68608;49.904;16.436;2023-09-30T06:30:24;18.15;;;16.05;;
79178;SDS011;68608;49.904;16.436;2023-09-30T06:32:59;18.92;;;15.95;;
79178;SDS011;68608;49.904;16.436;2023-09-30T06:35:26;20.05;;;17.42;;
79178;SDS011;68608;49.904;16.436;2023-09-30T06:37:52;20.35;;;17.50;;
79178;SDS011;68608;49.904;16.436;2023-09-30T06:40:18;18.77;;;16.77;;
79178;SDS011;68608;49.904;16.436;2023-09-30T06:42:45;19.33;;;17.17;;
79178;SDS011;68608;49.904;16.436;2023-09-30T06:45:11;22.17;;;19.90;;
79178;SDS011;68608;49.904;16.436;2023-09-30T06:47:40;20.65;;;18.50;;
79178;SDS011;68608;49.904;16.436;2023-09-30T06:50:11;18.50;;;16.55;;
79178;SDS011;68608;49.904;16.436;2023-09-30T06:52:41;19.05;;;16.98;;
79178;SDS011;68608;49.904;16.436;2023-09-30T06:55:07;22.33;;;18.77;;
79178;SDS011;68608;49.904;16.436;2023-09-30T06:57:35;18.15;;;16.35;;
79178;SDS011;68608;49.904;16.436;2023-09-30T07:00:07;17.70;;;16.00;;
79178;SDS011;68608;49.904;16.436;2023-09-30T07:02:34;17.50;;;15.75;;
79178;SDS011;68608;49.904;16.436;2023-09-30T07:05:01;20.17;;;18.10;;
79178;SDS011;68608;49.904;16.436;2023-09-30T07:07:29;17.05;;;15.40;;
79178;SDS011;68608;49.904;16.436;2023-09-30T07:09:55;18.27;;;16.45;;
79178;SDS011;68608;49.904;16.436;2023-09-30T07:12:21;17.10;;;15.40;;
79178;SDS011;68608;49.904;16.436;2023-09-30T07:14:47;21.00;;;19.05;;
79178;SDS011;68608;49.904;16.436;2023-09-30T07:17:13;18.92;;;17.02;;
79178;SDS011;68608;49.904;16.436;2023-09-30T07:19:39;18.50;;;16.73;;
79178;SDS011;68608;49.904;16.436;2023-09-30T07:22:05;17.63;;;15.80;;
79178;SDS011;68608;49.904;16.436;2023-09-30T07:24:31;17.13;;;15.52;;
79178;SDS011;68608;49.904;16.436;2023-09-30T07:26:58;14.90;;;13.43;;
79178;SDS011;68608;49.904;16.436;2023-09-30T07:29:24;17.42;;;15.52;;
79178;SDS011;68608;49.904;16.436;2023-09-30T07:31:50;16.02;;;14.32;;
79178;SDS011;68608;49.904;16.436;2023-09-30T07:34:16;15.40;;;13.00;;
79178;SDS011;68608;49.904;16.436;2023-09-30T07:36:42;14.05;;;12.55;;
79178;SDS011;68608;49.904;16.436;2023-09-30T07:39:08;14.00;;;12.60;;
79178;SDS011;68608;49.904;16.436;2023-09-30T07:41:34;13.23;;;11.07;;
79178;SDS011;68608;49.904;16.436;2023-09-30T07:44:03;12.05;;;10.73;;
79178;SDS011;68608;49.904;16.436;2023-09-30T07:46:30;15.93;;;12.80;;
79178;SDS011;68608;49.904;16.436;2023-09-30T07:48:56;12.10;;;10.90;;
79178;SDS011;68608;49.904;16.436;2023-09-30T07:51:24;13.30;;;12.00;;
79178;SDS011;68608;49.904;16.436;2023-09-30T07:53:50;12.55;;;11.25;;
79178;SDS011;68608;49.904;16.436;2023-09-30T07:56:17;11.38;;;10.20;;
79178;SDS011;68608;49.904;16.436;2023-09-30T07:58:43;13.10;;;11.80;;
79178;SDS011;68608;49.904;16.436;2023-09-30T08:01:09;13.68;;;10.80;;
79178;SDS011;68608;49.904;16.436;2023-09-30T08:03:35;12.48;;;10.75;;
79178;SDS011;68608;49.904;16.436;2023-09-30T08:06:02;14.13;;;11.88;;
79178;SDS011;68608;49.904;16.436;2023-09-30T08:08:28;11.38;;;10.18;;
79178;SDS011;68608;49.904;16.436;2023-09-30T08:10:55;12.43;;;11.15;;
79178;SDS011;68608;49.904;16.436;2023-09-30T08:13:22;12.38;;;10.50;;
79178;SDS011;68608;49.904;16.436;2023-09-30T08:15:49;12.55;;;11.02;;
79178;SDS011;68608;49.904;16.436;2023-09-30T08:18:16;11.98;;;9.32;;
79178;SDS011;68608;49.904;16.436;2023-09-30T08:20:42;11.27;;;9.50;;
79178;SDS011;68608;49.904;16.436;2023-09-30T08:23:08;11.50;;;9.65;;
79178;SDS011;68608;49.904;16.436;2023-09-30T08:25:34;11.75;;;9.07;;
79178;SDS011;68608;49.904;16.436;2023-09-30T08:28:00;9.13;;;8.23;;
79178;SDS011;68608;49.904;16.436;2023-09-30T08:30:26;10.20;;;9.13;;
79178;SDS011;68608;49.904;16.436;2023-09-30T08:32:53;9.32;;;8.32;;
79178;SDS011;68608;49.904;16.436;2023-09-30T08:35:19;8.90;;;8.00;;
79178;SDS011;68608;49.904;16.436;2023-09-30T08:37:45;9.95;;;8.93;;
79178;SDS011;68608;49.904;16.436;2023-09-30T08:40:11;9.45;;;8.52;;
79178;SDS011;68608;49.904;16.436;2023-09-30T08:42:38;10.65;;;9.38;;
79178;SDS011;68608;49.904;16.436;2023-09-30T08:45:04;9.68;;;8.77;;
79178;SDS011;68608;49.904;16.436;2023-09-30T08:47:31;9.45;;;8.57;;
79178;SDS011;68608;49.904;16.436;2023-09-30T08:50:00;10.82;;;9.80;;
79178;SDS011;68608;49.904;16.436;2023-09-30T08:52:31;9.10;;;8.15;;
79178;SDS011;68608;49.904;16.436;2023-09-30T08:54:58;6.75;;;6.13;;
79178;SDS011;68608;49.904;16.436;2023-09-30T08:57:24;6.53;;;5.97;;
79178;SDS011;68608;49.904;16.436;2023-09-30T08:59:50;6.20;;;5.25;;
79178;SDS011;68608;49.904;16.436;2023-09-30T09:02:18;5.07;;;4.57;;
79178;SDS011;68608;49.904;16.436;2023-09-30T09:04:47;4.55;;;4.15;;
79178;SDS011;68608;49.904;16.436;2023-09-30T09:07:14;3.20;;;2.95;;
79178;SDS011;68608;49.904;16.436;2023-09-30T09:09:40;3.40;;;3.05;;
79178;SDS011;68608;49.904;16.436;2023-09-30T09:12:06;3.10;;;2.80;;
79178;SDS011;68608;49.904;16.436;2023-09-30T09:14:44;2.30;;;2.10;;
79178;SDS011;68608;49.904;16.436;2023-09-30T09:17:11;2.85;;;2.42;;
79178;SDS011;68608;49.904;16.436;2023-09-30T09:19:39;2.08;;;1.98;;
79178;SDS011;68608;49.904;16.436;2023-09-30T09:22:05;2.38;;;1.80;;
79178;SDS011;68608;49.904;16.436;2023-09-30T09:24:37;3.10;;;2.28;;
79178;SDS011;68608;49.904;16.436;2023-09-30T09:27:10;2.35;;;1.63;;
79178;SDS011;68608;49.904;16.436;2023-09-30T09:29:36;2.95;;;2.20;;
79178;SDS011;68608;49.904;16.436;2023-09-30T09:32:06;1.88;;;1.77;;
79178;SDS011;68608;49.904;16.436;2023-09-30T09:34:34;2.05;;;1.77;;
79178;SDS011;68608;49.904;16.436;2023-09-30T09:37:00;1.95;;;1.83;;
79178;SDS011;68608;49.904;16.436;2023-09-30T09:39:38;2.30;;;2.10;;
79178;SDS011;68608;49.904;16.436;2023-09-30T09:42:04;2.25;;;2.00;;
79178;SDS011;68608;49.904;16.436;2023-09-30T09:44:31;3.08;;;2.45;;
79178;SDS011;68608;49.904;16.436;2023-09-30T09:46:59;2.67;;;2.47;;
79178;SDS011;68608;49.904;16.436;2023-09-30T09:49:26;3.05;;;2.78;;
79178;SDS011;68608;49.904;16.436;2023-09-30T09:51:54;4.57;;;3.22;;
79178;SDS011;68608;49.904;16.436;2023-09-30T09:54:20;5.28;;;3.63;;
79178;SDS011;68608;49.904;16.436;2023-09-30T09:56:46;3.05;;;2.85;;
79178;SDS011;68608;49.904;16.436;2023-09-30T09:59:13;3.35;;;2.72;;
79178;SDS011;68608;49.904;16.436;2023-09-30T10:01:40;3.22;;;2.95;;
79178;SDS011;68608;49.904;16.436;2023-09-30T10:04:06;2.60;;;2.40;;
79178;SDS011;68608;49.904;16.436;2023-09-30T10:06:33;3.70;;;2.22;;
79178;SDS011;68608;49.904;16.436;2023-09-30T10:09:05;4.80;;;3.00;;
79178;SDS011;68608;49.904;16.436;2023-09-30T10:11:34;2.85;;;2.47;;
79178;SDS011;68608;49.904;16.436;2023-09-30T10:14:00;3.25;;;2.42;;
79178;SDS011;68608;49.904;16.436;2023-09-30T10:19:27;3.47;;;3.08;;
79178;SDS011;68608;49.904;16.436;2023-09-30T10:24:39;4.38;;;2.78;;
79178;SDS011;68608;49.904;16.436;2023-09-30T10:40:38;3.67;;;3.22;;
79178;SDS011;68608;49.904;16.436;2023-09-30T10:43:04;7.13;;;3.50;;
79178;SDS011;68608;49.904;16.436;2023-09-30T10:50:57;5.28;;;3.88;;
79178;SDS011;68608;49.904;16.436;2023-09-30T10:53:27;4.43;;;4.00;;
79178;SDS011;68608;49.904;16.436;2023-09-30T10:56:00;5.90;;;3.40;;
79178;SDS011;68608;49.904;16.436;2023-09-30T10:58:39;3.50;;;2.97;;
79178;SDS011;68608;49.904;16.436;2023-09-30T11:01:05;5.75;;;3.42;;
79178;SDS011;68608;49.904;16.436;2023-09-30T11:03:32;3.72;;;2.80;;
79178;SDS011;68608;49.904;16.436;2023-09-30T11:05:58;6.43;;;2.65;;
79178;SDS011;68608;49.904;16.436;2023-09-30T11:08:24;4.75;;;2.63;;
79178;SDS011;68608;49.904;16.436;2023-09-30T11:10:55;4.45;;;2.63;;
79178;SDS011;68608;49.904;16.436;2023-09-30T11:13:21;3.35;;;2.17;;
79178;SDS011;68608;49.904;16.436;2023-09-30T11:15:58;3.88;;;2.40;;
79178;SDS011;68608;49.904;16.436;2023-09-30T11:18:25;6.15;;;2.55;;
79178;SDS011;68608;49.904;16.436;2023-09-30T11:20:53;2.95;;;2.35;;
79178;SDS011;68608;49.904;16.436;2023-09-30T11:23:28;2.53;;;2.33;;
79178;SDS011;68608;49.904;16.436;2023-09-30T11:25:55;2.65;;;1.95;;
79178;SDS011;68608;49.904;16.436;2023-09-30T11:28:21;5.95;;;2.30;;
79178;SDS011;68608;49.904;16.436;2023-09-30T11:31:01;4.22;;;2.80;;
79178;SDS011;68608;49.904;16.436;2023-09-30T11:33:27;4.15;;;2.50;;
79178;SDS011;68608;49.904;16.436;2023-09-30T11:36:04;4.32;;;2.90;;
79178;SDS011;68608;49.904;16.436;2023-09-30T11:38:31;4.13;;;2.35;;
79178;SDS011;68608;49.904;16.436;2023-09-30T11:40:58;6.38;;;2.72;;
79178;SDS011;68608;49.904;16.436;2023-09-30T11:43:25;3.15;;;2.47;;
79178;SDS011;68608;49.904;16.436;2023-09-30T11:45:51;4.50;;;3.13;;
79178;SDS011;68608;49.904;16.436;2023-09-30T11:48:17;4.00;;;2.53;;
79178;SDS011;68608;49.904;16.436;2023-09-30T11:50:48;3.88;;;2.70;;
79178;SDS011;68608;49.904;16.436;2023-09-30T11:53:16;3.67;;;2.50;;
79178;SDS011;68608;49.904;16.436;2023-09-30T11:55:42;3.97;;;2.72;;
79178;SDS011;68608;49.904;16.436;2023-09-30T11:58:08;4.28;;;2.30;;
79178;SDS011;68608;49.904;16.436;2023-09-30T12:00:34;3.97;;;2.85;;
79178;SDS011;68608;49.904;16.436;2023-09-30T12:03:01;4.18;;;2.72;;
79178;SDS011;68608;49.904;16.436;2023-09-30T12:05:27;6.22;;;2.90;;
79178;SDS011;68608;49.904;16.436;2023-09-30T12:07:54;7.45;;;3.20;;
79178;SDS011;68608;49.904;16.436;2023-09-30T12:10:20;4.90;;;2.90;;
79178;SDS011;68608;49.904;16.436;2023-09-30T12:12:46;3.83;;;2.20;;
79178;SDS011;68608;49.904;16.436;2023-09-30T12:15:12;3.33;;;2.45;;
79178;SDS011;68608;49.904;16.436;2023-09-30T12:17:38;5.30;;;2.50;;
79178;SDS011;68608;49.904;16.436;2023-09-30T12:20:05;6.38;;;2.97;;
79178;SDS011;68608;49.904;16.436;2023-09-30T12:22:31;5.28;;;2.90;;
79178;SDS011;68608;49.904;16.436;2023-09-30T12:24:57;4.55;;;3.00;;
79178;SDS011;68608;49.904;16.436;2023-09-30T12:27:26;6.28;;;2.88;;
79178;SDS011;68608;49.904;16.436;2023-09-30T12:29:52;6.80;;;2.70;;
79178;SDS011;68608;49.904;16.436;2023-09-30T12:32:18;5.88;;;2.75;;
79178;SDS011;68608;49.904;16.436;2023-09-30T12:34:44;6.18;;;3.00;;
79178;SDS011;68608;49.904;16.436;2023-09-30T12:37:10;5.10;;;2.30;;
79178;SDS011;68608;49.904;16.436;2023-09-30T12:39:36;5.47;;;3.10;;
79178;SDS011;68608;49.904;16.436;2023-09-30T12:42:02;5.25;;;3.42;;
79178;SDS011;68608;49.904;16.436;2023-09-30T12:44:33;6.75;;;2.72;;
79178;SDS011;68608;49.904;16.436;2023-09-30T12:46:59;6.65;;;2.50;;
79178;SDS011;68608;49.904;16.436;2023-09-30T12:49:25;5.82;;;2.67;;
79178;SDS011;68608;49.904;16.436;2023-09-30T12:51:52;4.03;;;3.22;;
79178;SDS011;68608;49.904;16.436;2023-09-30T12:54:18;6.63;;;3.00;;
79178;SDS011;68608;49.904;16.436;2023-09-30T12:56:44;5.07;;;3.00;;
79178;SDS011;68608;49.904;16.436;2023-09-30T12:59:12;8.75;;;3.22;;
79178;SDS011;68608;49.904;16.436;2023-09-30T13:01:38;5.32;;;2.50;;
79178;SDS011;68608;49.904;16.436;2023-09-30T13:04:04;4.57;;;2.92;;
79178;SDS011;68608;49.904;16.436;2023-09-30T13:06:33;4.47;;;3.10;;
79178;SDS011;68608;49.904;16.436;2023-09-30T13:09:00;4.57;;;3.10;;
79178;SDS011;68608;49.904;16.436;2023-09-30T13:11:26;7.03;;;3.25;;
79178;SDS011;68608;49.904;16.436;2023-09-30T13:13:52;7.00;;;3.15;;
79178;SDS011;68608;49.904;16.436;2023-09-30T13:16:18;5.60;;;3.15;;
79178;SDS011;68608;49.904;16.436;2023-09-30T13:18:45;4.55;;;2.85;;
79178;SDS011;68608;49.904;16.436;2023-09-30T13:21:11;6.90;;;3.45;;
79178;SDS011;68608;49.904;16.436;2023-09-30T13:23:37;3.97;;;2.88;;
79178;SDS011;68608;49.904;16.436;2023-09-30T13:26:03;8.65;;;3.17;;
79178;SDS011;68608;49.904;16.436;2023-09-30T13:28:29;5.10;;;3.05;;
79178;SDS011;68608;49.904;16.436;2023-09-30T13:30:55;5.68;;;3.03;;
79178;SDS011;68608;49.904;16.436;2023-09-30T13:33:22;3.92;;;2.95;;
79178;SDS011;68608;49.904;16.436;2023-09-30T13:35:48;5.53;;;3.17;;
79178;SDS011;68608;49.904;16.436;2023-09-30T13:38:14;7.95;;;3.67;;
79178;SDS011;68608;49.904;16.436;2023-09-30T13:40:41;5.35;;;3.30;;
79178;SDS011;68608;49.904;16.436;2023-09-30T13:43:07;5.65;;;3.15;;
79178;SDS011;68608;49.904;16.436;2023-09-30T13:45:33;4.40;;;2.85;;
79178;SDS011;68608;49.904;16.436;2023-09-30T13:47:59;4.97;;;3.03;;
79178;SDS011;68608;49.904;16.436;2023-09-30T13:50:25;4.85;;;2.58;;
79178;SDS011;68608;49.904;16.436;2023-09-30T13:52:51;6.65;;;3.08;;
79178;SDS011;68608;49.904;16.436;2023-09-30T13:55:17;5.60;;;3.10;;
79178;SDS011;68608;49.904;16.436;2023-09-30T13:57:46;4.32;;;2.58;;
79178;SDS011;68608;49.904;16.436;2023-09-30T14:00:15;7.22;;;3.10;;
79178;SDS011;68608;49.904;16.436;2023-09-30T14:02:42;4.35;;;3.03;;
79178;SDS011;68608;49.904;16.436;2023-09-30T14:05:08;7.15;;;3.17;;
79178;SDS011;68608;49.904;16.436;2023-09-30T14:07:35;5.45;;;2.97;;
79178;SDS011;68608;49.904;16.436;2023-09-30T14:10:02;5.63;;;3.20;;
79178;SDS011;68608;49.904;16.436;2023-09-30T14:12:28;4.78;;;2.88;;
79178;SDS011;68608;49.904;16.436;2023-09-30T14:14:55;4.63;;;2.60;;
79178;SDS011;68608;49.904;16.436;2023-09-30T14:17:21;5.25;;;3.40;;
79178;SDS011;68608;49.904;16.436;2023-09-30T14:19:47;5.95;;;2.90;;
79178;SDS011;68608;49.904;16.436;2023-09-30T14:22:13;4.13;;;2.53;;
79178;SDS011;68608;49.904;16.436;2023-09-30T14:24:39;5.38;;;2.50;;
79178;SDS011;68608;49.904;16.436;2023-09-30T14:27:05;3.60;;;2.55;;
79178;SDS011;68608;49.904;16.436;2023-09-30T14:29:32;4.28;;;2.60;;
79178;SDS011;68608;49.904;16.436;2023-09-30T14:31:58;4.00;;;2.70;;
79178;SDS011;68608;49.904;16.436;2023-09-30T14:34:25;5.03;;;2.40;;
79178;SDS011;68608;49.904;16.436;2023-09-30T14:36:51;3.97;;;2.78;;
79178;SDS011;68608;49.904;16.436;2023-09-30T14:39:17;6.43;;;3.03;;
79178;SDS011;68608;49.904;16.436;2023-09-30T14:41:44;5.65;;;3.30;;
79178;SDS011;68608;49.904;16.436;2023-09-30T14:44:10;5.43;;;3.00;;
79178;SDS011;68608;49.904;16.436;2023-09-30T14:46:37;4.78;;;3.20;;
79178;SDS011;68608;49.904;16.436;2023-09-30T14:49:04;3.15;;;2.47;;